Time;durP1;ratioP1;P1;durP2;ratioP2;P2;SDS_P1;SDS_P2;PMS_P1;PMS_P2;Temp;Humidity;BMP_temperature;BMP_pressure;BME280_temperature;BME280_humidity;BME280_pressure;Samples;Min_cycle;Max_cycle;Signal;HPM_P1;HPM_P2
2023/10/13 00:01:44;;;;;;;14.38;10.23;;;16.50;99.90;;;;;;7296418;32;20153;-57
2023/10/13 00:05:45;;;;;;;13.77;10.15;;;16.50;99.90;;;;;;7298250;32;20130;-56
2023/10/13 00:09:47;;;;;;;17.85;10.00;;;16.60;99.90;;;;;;7299772;32;20268;-56
2023/10/13 00:13:52;;;;;;;15.15;10.07;;;16.70;99.90;;;;;;7296288;32;20127;-55
2023/10/13 00:17:55;;;;;;;13.93;10.15;;;16.70;99.90;;;;;;7293860;32;20190;-56
2023/10/13 00:22:08;;;;;;;12.82;9.27;;;16.60;99.90;;;;;;7296495;32;20179;-56
2023/10/13 00:26:10;;;;;;;15.93;10.55;;;16.70;99.90;;;;;;7295301;32;20207;-56
2023/10/13 00:34:25;;;;;;;16.45;9.68;;;16.60;99.90;;;;;;7298568;32;20500;-56
2023/10/13 00:38:27;;;;;;;13.93;8.90;;;16.60;99.90;;;;;;7300386;32;20195;-56
2023/10/13 00:42:50;;;;;;;12.98;8.48;;;16.60;99.90;;;;;;7293634;32;20123;-56
2023/10/13 00:46:55;;;;;;;12.45;8.73;;;16.60;99.90;;;;;;7301608;32;20166;-56
2023/10/13 00:51:03;;;;;;;11.57;8.57;;;16.60;99.90;;;;;;7303530;32;20302;-56
2023/10/13 00:55:08;;;;;;;12.20;8.45;;;16.60;99.90;;;;;;7300952;32;20104;-56
2023/10/13 00:59:10;;;;;;;12.63;8.48;;;16.60;99.90;;;;;;7304103;32;20112;-56
2023/10/13 01:03:14;;;;;;;10.88;8.15;;;16.70;99.90;;;;;;7302707;32;20902;-56
2023/10/13 01:07:16;;;;;;;9.77;7.40;;;16.60;99.90;;;;;;7300575;32;20350;-55
2023/10/13 01:11:19;;;;;;;11.90;7.70;;;16.70;99.90;;;;;;7304615;32;20709;-56
2023/10/13 01:15:21;;;;;;;15.57;8.38;;;16.60;99.90;;;;;;7302478;32;20136;-56
2023/10/13 01:19:27;;;;;;;10.18;7.90;;;16.70;99.90;;;;;;7296784;32;20230;-56
2023/10/13 01:23:37;;;;;;;12.37;8.07;;;16.60;99.90;;;;;;7298997;32;20104;-56
2023/10/13 01:27:40;;;;;;;13.32;7.80;;;16.60;99.90;;;;;;7300091;32;20124;-56
2023/10/13 01:31:46;;;;;;;12.80;8.43;;;16.60;99.90;;;;;;7298765;32;20131;-56
2023/10/13 01:35:49;;;;;;;13.57;7.53;;;16.60;99.90;;;;;;7301218;32;21408;-57
2023/10/13 01:39:50;;;;;;;14.18;8.15;;;16.60;99.90;;;;;;7298742;32;20317;-55
2023/10/13 01:43:56;;;;;;;14.48;8.05;;;16.60;99.90;;;;;;7301872;32;20149;-56
2023/10/13 01:47:58;;;;;;;10.70;8.38;;;16.60;99.90;;;;;;7298316;32;20124;-56
2023/10/13 01:52:03;;;;;;;13.65;8.60;;;16.60;99.90;;;;;;7298713;32;20545;-58
2023/10/13 01:56:09;;;;;;;13.68;8.50;;;16.50;99.90;;;;;;7302793;32;20122;-57
2023/10/13 02:00:19;;;;;;;15.73;8.70;;;16.50;99.90;;;;;;7288753;32;20154;-56
2023/10/13 02:04:21;;;;;;;14.90;9.20;;;16.50;99.90;;;;;;7294870;32;20208;-57
2023/10/13 02:08:24;;;;;;;10.95;8.65;;;16.50;99.90;;;;;;7296859;32;20096;-56
2023/10/13 02:12:36;;;;;;;15.50;9.15;;;16.50;99.90;;;;;;7297323;32;20141;-56
2023/10/13 02:16:41;;;;;;;11.70;9.07;;;16.50;99.90;;;;;;7301409;32;20217;-56
2023/10/13 02:20:45;;;;;;;14.57;8.40;;;16.50;99.90;;;;;;7282748;32;20104;-56
2023/10/13 02:24:51;;;;;;;11.10;8.63;;;16.50;99.90;;;;;;7297509;32;20107;-56
2023/10/13 02:28:57;;;;;;;13.80;8.63;;;16.40;99.90;;;;;;7297517;32;20126;-56
2023/10/13 02:33:05;;;;;;;12.50;9.02;;;16.40;99.90;;;;;;7300988;32;20447;-56
2023/10/13 02:37:09;;;;;;;14.85;8.88;;;16.40;99.90;;;;;;7295174;32;20497;-56
2023/10/13 02:41:25;;;;;;;12.32;9.60;;;16.40;99.90;;;;;;7285722;32;20191;-56
2023/10/13 02:45:27;;;;;;;13.20;8.48;;;16.40;99.90;;;;;;7301826;32;20108;-56
2023/10/13 02:49:33;;;;;;;15.98;9.32;;;16.40;99.90;;;;;;7299664;32;20199;-56
2023/10/13 02:53:35;;;;;;;16.10;9.53;;;16.40;99.90;;;;;;7300089;32;20116;-56
2023/10/13 02:57:39;;;;;;;13.23;9.77;;;16.50;99.90;;;;;;7298351;32;20363;-56
2023/10/13 03:01:41;;;;;;;15.70;10.10;;;16.60;99.90;;;;;;7297540;32;20143;-56
2023/10/13 03:05:43;;;;;;;13.20;9.80;;;16.50;99.90;;;;;;7296419;32;20562;-56
2023/10/13 03:09:50;;;;;;;16.65;11.77;;;16.40;99.90;;;;;;7301096;32;20586;-56
2023/10/13 03:13:52;;;;;;;17.90;11.10;;;16.40;99.90;;;;;;7282877;32;20477;-56
2023/10/13 03:17:55;;;;;;;16.73;11.68;;;16.40;99.90;;;;;;7299772;32;20526;-56
2023/10/13 03:22:04;;;;;;;14.73;10.10;;;16.40;99.90;;;;;;7297583;32;20111;-56
2023/10/13 03:26:09;;;;;;;13.82;11.02;;;16.50;99.90;;;;;;7287455;32;20183;-56
2023/10/13 03:30:15;;;;;;;15.15;11.45;;;16.50;99.90;;;;;;7280786;32;20217;-56
2023/10/13 03:34:19;;;;;;;16.20;11.90;;;16.50;99.90;;;;;;7295115;32;20123;-57
2023/10/13 03:38:26;;;;;;;15.90;12.15;;;16.50;99.90;;;;;;7298989;32;20237;-56
2023/10/13 03:42:28;;;;;;;18.10;11.25;;;16.50;99.90;;;;;;7295641;32;20126;-56
2023/10/13 03:46:30;;;;;;;15.07;11.65;;;16.50;99.90;;;;;;7296632;32;20176;-56
2023/10/13 03:50:32;;;;;;;16.60;11.75;;;16.50;99.90;;;;;;7301409;32;20544;-56
2023/10/13 03:54:35;;;;;;;15.93;12.23;;;16.50;99.90;;;;;;7291780;32;20672;-56
2023/10/13 03:58:39;;;;;;;16.77;12.48;;;16.50;99.90;;;;;;7296433;32;20104;-56
2023/10/13 04:02:52;;;;;;;18.33;11.98;;;16.40;99.90;;;;;;7298212;32;20099;-56
2023/10/13 04:07:13;;;;;;;21.10;12.55;;;16.40;99.90;;;;;;7300984;32;20107;-56
2023/10/13 04:15:43;;;;;;;19.05;12.23;;;16.50;99.90;;;;;;7303809;32;20108;-56
2023/10/13 04:28:37;;;;;;;17.45;12.50;;;16.40;99.90;;;;;;7303919;32;20140;-56
2023/10/13 04:32:46;;;;;;;22.00;13.80;;;16.30;99.90;;;;;;7299682;32;20104;-57
2023/10/13 04:36:55;;;;;;;23.60;14.23;;;16.40;99.90;;;;;;7289718;32;20120;-56
2023/10/13 04:41:01;;;;;;;18.95;13.05;;;16.40;99.90;;;;;;7301292;32;20146;-57
2023/10/13 04:45:15;;;;;;;19.10;13.43;;;16.40;99.90;;;;;;7301532;32;20292;-57
2023/10/13 04:49:28;;;;;;;28.38;13.73;;;16.50;99.90;;;;;;7293422;32;20136;-54
2023/10/13 04:53:33;;;;;;;18.73;13.68;;;16.50;99.90;;;;;;7298588;32;20147;-56
2023/10/13 04:57:52;;;;;;;20.45;12.90;;;16.50;99.90;;;;;;7303207;32;20580;-56
2023/10/13 05:44:32;;;;;;;17.52;13.02;;;16.50;99.90;;;;;;7291158;32;20194;-56
2023/10/13 05:49:50;;;;;;;15.77;11.23;;;16.70;99.90;;;;;;7292359;32;20207;-55
2023/10/13 06:28:41;;;;;;;13.65;8.95;;;17.00;99.90;;;;;;7301818;32;20104;-56
2023/10/13 06:32:46;;;;;;;16.20;9.75;;;17.00;99.90;;;;;;7292525;32;20563;-57
2023/10/13 06:36:48;;;;;;;14.38;9.13;;;17.00;99.90;;;;;;7296205;32;20491;-57
2023/10/13 06:40:53;;;;;;;17.17;9.90;;;17.00;99.90;;;;;;7296126;32;20168;-56
2023/10/13 06:44:55;;;;;;;18.75;9.93;;;17.00;99.90;;;;;;7299250;32;20308;-57
2023/10/13 06:48:59;;;;;;;16.92;10.25;;;17.00;99.90;;;;;;7298666;32;20135;-56
2023/10/13 06:53:01;;;;;;;16.15;10.43;;;17.00;99.90;;;;;;7299761;32;20280;-56
2023/10/13 06:57:06;;;;;;;14.07;10.65;;;17.10;99.90;;;;;;7297854;32;20266;-57
2023/10/13 07:01:14;;;;;;;15.27;10.38;;;17.10;99.90;;;;;;7293504;32;20264;-57
2023/10/13 07:05:16;;;;;;;17.95;11.55;;;17.00;99.90;;;;;;7297728;32;20230;-57
2023/10/13 07:13:39;;;;;;;17.12;10.75;;;17.10;99.90;;;;;;7294191;32;20469;-57
2023/10/13 07:17:44;;;;;;;18.75;11.07;;;17.20;99.90;;;;;;7300896;32;20554;-57
2023/10/13 07:21:46;;;;;;;18.08;10.35;;;17.30;99.90;;;;;;7298612;32;20120;-56
2023/10/13 07:26:02;;;;;;;14.38;9.90;;;17.30;99.90;;;;;;7296603;32;20561;-57
2023/10/13 07:30:13;;;;;;;17.77;10.63;;;17.40;99.90;;;;;;7300063;32;20506;-56
2023/10/13 07:34:26;;;;;;;13.80;10.07;;;17.40;99.90;;;;;;7297216;32;20126;-57
2023/10/13 07:38:30;;;;;;;17.20;9.55;;;17.50;99.90;;;;;;7292472;32;20143;-56
2023/10/13 07:42:38;;;;;;;15.48;9.32;;;17.50;99.90;;;;;;7298374;32;20103;-56
2023/10/13 07:46:40;;;;;;;15.00;8.65;;;17.50;99.90;;;;;;7298361;32;20149;-56
2023/10/13 07:50:44;;;;;;;15.82;8.45;;;17.70;99.90;;;;;;7295009;32;20855;-56
2023/10/13 07:54:56;;;;;;;18.55;9.73;;;17.70;99.90;;;;;;7299672;32;20119;-56
2023/10/13 07:59:01;;;;;;;17.40;8.73;;;17.70;99.90;;;;;;7294070;32;20250;-56
2023/10/13 08:07:27;;;;;;;17.48;8.05;;;17.80;99.90;;;;;;7299796;32;20540;-56
2023/10/13 08:11:34;;;;;;;14.82;8.88;;;17.80;99.90;;;;;;7292829;32;20600;-56
2023/10/13 08:15:36;;;;;;;13.52;8.27;;;17.90;99.90;;;;;;7294656;32;20551;-56
2023/10/13 08:19:49;;;;;;;14.63;8.10;;;17.90;99.90;;;;;;7295827;32;20492;-56
2023/10/13 08:40:56;;;;;;;19.00;7.28;;;18.10;99.90;;;;;;7292139;32;20160;-56
2023/10/13 08:45:04;;;;;;;14.02;7.47;;;18.20;99.90;;;;;;7292650;32;20108;-56
2023/10/13 08:49:17;;;;;;;15.18;6.72;;;18.50;99.90;;;;;;7296284;32;20825;-56
2023/10/13 08:57:34;;;;;;;12.93;6.40;;;18.80;99.90;;;;;;7299472;32;20134;-56
2023/10/13 09:06:00;;;;;;;10.10;5.78;;;18.90;99.90;;;;;;7300713;32;20147;-57
2023/10/13 09:10:11;;;;;;;15.40;6.70;;;18.90;99.90;;;;;;7303350;32;20144;-56
2023/10/13 09:14:32;;;;;;;18.62;6.35;;;19.10;99.90;;;;;;7298409;32;20199;-56
2023/10/13 09:18:46;;;;;;;14.65;6.45;;;19.40;99.90;;;;;;7301441;32;20150;-56
2023/10/13 09:27:04;;;;;;;16.00;6.07;;;19.60;99.90;;;;;;7292304;32;20223;-57
2023/10/13 09:31:07;;;;;;;14.95;5.78;;;19.80;99.90;;;;;;7296864;32;20829;-56
2023/10/13 09:35:16;;;;;;;15.60;5.75;;;20.10;99.90;;;;;;7298516;32;20203;-57
2023/10/13 09:39:29;;;;;;;17.12;5.85;;;20.40;99.90;;;;;;7290508;32;20222;-57
2023/10/13 09:43:32;;;;;;;14.85;5.53;;;20.60;99.90;;;;;;7296429;32;20115;-56
2023/10/13 09:47:36;;;;;;;14.15;4.95;;;20.90;99.90;;;;;;7295552;32;20119;-57
2023/10/13 09:51:45;;;;;;;14.98;4.72;;;21.50;99.90;;;;;;7290375;32;20116;-57
2023/10/13 09:56:11;;;;;;;12.18;4.65;;;21.80;99.90;;;;;;7298476;32;20115;-57
2023/10/13 10:04:51;;;;;;;14.52;5.55;;;21.80;99.90;;;;;;7303012;32;20142;-57
2023/10/13 10:09:10;;;;;;;17.95;6.37;;;21.80;99.90;;;;;;7297190;32;20131;-58
2023/10/13 10:13:34;;;;;;;14.32;5.62;;;21.80;99.90;;;;;;7291316;32;20215;-58
2023/10/13 10:17:43;;;;;;;13.62;5.93;;;21.60;99.90;;;;;;7301023;32;20585;-58
2023/10/13 10:21:45;;;;;;;10.75;5.72;;;21.60;99.90;;;;;;7302882;32;20831;-57
2023/10/13 10:25:51;;;;;;;15.98;5.68;;;21.60;99.90;;;;;;7293361;32;20538;-57
2023/10/13 10:29:54;;;;;;;11.18;5.30;;;21.60;99.90;;;;;;7300507;32;20136;-59
2023/10/13 10:33:56;;;;;;;13.02;5.90;;;21.70;99.90;;;;;;7298577;32;20123;-58
2023/10/13 10:42:29;;;;;;;15.98;5.80;;;21.60;99.90;;;;;;7289382;32;20116;-57
2023/10/13 10:46:42;;;;;;;15.57;6.20;;;21.50;99.90;;;;;;7300220;32;20134;-57
2023/10/13 10:50:53;;;;;;;11.95;5.60;;;21.50;99.90;;;;;;7298032;32;20547;-57
2023/10/13 10:54:59;;;;;;;13.02;6.25;;;21.60;99.90;;;;;;7300794;32;20132;-58
2023/10/13 10:59:01;;;;;;;13.70;6.33;;;21.70;99.90;;;;;;7299600;32;20213;-56
2023/10/13 11:03:04;;;;;;;12.73;6.18;;;21.70;99.90;;;;;;7300230;32;20130;-55
2023/10/13 11:07:08;;;;;;;11.48;5.70;;;21.70;99.90;;;;;;7294699;32;20134;-57
2023/10/13 11:11:17;;;;;;;18.25;6.72;;;21.50;99.90;;;;;;7297673;32;20182;-57
2023/10/13 11:15:22;;;;;;;14.48;6.22;;;21.50;99.90;;;;;;7289223;32;20195;-57
2023/10/13 11:19:38;;;;;;;18.35;6.95;;;21.70;99.90;;;;;;7297727;32;20134;-57
2023/10/13 11:23:40;;;;;;;13.43;6.05;;;21.70;99.90;;;;;;7296517;32;20213;-56
2023/10/13 11:32:00;;;;;;;17.05;5.30;;;21.90;99.90;;;;;;7295234;32;20104;-55
2023/10/13 11:36:03;;;;;;;15.05;6.22;;;22.10;99.90;;;;;;7292909;32;20104;-57
2023/10/13 11:40:12;;;;;;;14.90;6.28;;;22.20;99.90;;;;;;7296297;32;20127;-56
2023/10/13 11:48:34;;;;;;;13.45;5.85;;;22.30;99.90;;;;;;7293564;32;20130;-60
2023/10/13 11:52:35;;;;;;;15.52;5.30;;;22.30;99.90;;;;;;7293117;32;20169;-58
2023/10/13 11:56:38;;;;;;;20.10;6.30;;;22.40;99.90;;;;;;7288353;32;20854;-56
2023/10/13 12:01:19;;;;;;;17.75;5.97;;;22.70;99.90;;;;;;7298521;32;20206;-56
2023/10/13 12:05:27;;;;;;;16.80;5.00;;;22.80;99.90;;;;;;7299520;32;20126;-56
2023/10/13 12:09:41;;;;;;;17.08;4.93;;;23.00;99.90;;;;;;7290051;32;20193;-57
2023/10/13 12:13:43;;;;;;;16.37;5.12;;;23.00;99.90;;;;;;7294010;32;20174;-57
2023/10/13 12:17:45;;;;;;;18.40;5.72;;;23.00;99.90;;;;;;7298092;32;20107;-58
2023/10/13 12:21:48;;;;;;;15.43;6.07;;;23.00;99.90;;;;;;7299769;32;20120;-57
2023/10/13 12:26:00;;;;;;;19.33;5.22;;;23.00;99.90;;;;;;7292429;32;20187;-58
2023/10/13 12:30:09;;;;;;;20.50;5.53;;;23.00;99.90;;;;;;7297841;32;20510;-57
2023/10/13 12:34:19;;;;;;;15.25;4.93;;;23.00;99.90;;;;;;7297041;32;20121;-57
2023/10/13 12:55:40;;;;;;;19.17;5.05;;;22.70;99.90;;;;;;7301314;32;20462;-57
2023/10/13 12:59:42;;;;;;;19.40;5.00;;;22.70;99.90;;;;;;7300067;32;20215;-57
2023/10/13 13:03:44;;;;;;;17.05;5.10;;;22.70;99.90;;;;;;7297690;32;20408;-57
2023/10/13 13:07:52;;;;;;;18.75;4.85;;;22.80;99.90;;;;;;7299323;32;20195;-57
2023/10/13 13:11:57;;;;;;;22.65;4.35;;;22.80;99.90;;;;;;7297978;32;20123;-54
2023/10/13 13:16:00;;;;;;;16.20;5.43;;;22.70;99.90;;;;;;7300062;32;20139;-55
2023/10/13 13:20:10;;;;;;;19.52;5.40;;;22.70;99.90;;;;;;7301618;32;20180;-55
2023/10/13 13:24:13;;;;;;;15.38;4.80;;;22.50;99.90;;;;;;7300472;32;20518;-57
2023/10/13 13:28:15;;;;;;;19.05;5.40;;;22.60;99.90;;;;;;7303143;32;20169;-56
2023/10/13 13:32:18;;;;;;;15.98;5.10;;;22.60;99.90;;;;;;7296374;32;20258;-57
2023/10/13 13:36:22;;;;;;;23.10;5.55;;;22.60;99.90;;;;;;7298395;32;20581;-55
2023/10/13 13:40:24;;;;;;;20.27;4.80;;;22.60;99.90;;;;;;7299916;32;20175;-56
2023/10/13 13:44:29;;;;;;;15.00;4.80;;;22.60;99.90;;;;;;7293809;32;20454;-54
2023/10/13 13:48:32;;;;;;;15.20;4.35;;;22.60;99.90;;;;;;7302948;32;20270;-56
2023/10/13 13:52:45;;;;;;;18.05;5.20;;;22.50;99.90;;;;;;7297430;32;20108;-57
2023/10/13 13:56:47;;;;;;;18.35;5.20;;;22.50;99.90;;;;;;7293645;32;20175;-56
2023/10/13 14:00:50;;;;;;;23.50;5.12;;;22.50;99.90;;;;;;7300311;32;20165;-56
2023/10/13 14:04:52;;;;;;;20.55;5.12;;;22.50;99.90;;;;;;7301623;32;20175;-57
2023/10/13 14:09:03;;;;;;;17.08;4.80;;;22.60;99.90;;;;;;7300300;32;20115;-57
2023/10/13 14:13:13;;;;;;;15.30;4.32;;;22.60;99.90;;;;;;7301319;32;20175;-59
2023/10/13 14:17:15;;;;;;;13.80;5.00;;;22.50;99.90;;;;;;7302128;32;20221;-58
2023/10/13 14:21:18;;;;;;;23.70;5.37;;;22.50;99.90;;;;;;7302730;32;20121;-59
2023/10/13 14:25:24;;;;;;;22.60;5.35;;;22.30;99.90;;;;;;7293247;32;21008;-58
2023/10/13 14:29:26;;;;;;;20.48;4.37;;;22.30;99.90;;;;;;7296856;32;20180;-58
2023/10/13 14:33:31;;;;;;;16.95;5.32;;;22.10;99.90;;;;;;7298133;32;20534;-59
2023/10/13 14:37:33;;;;;;;17.35;5.03;;;22.20;99.90;;;;;;7292675;32;20135;-59
2023/10/13 14:41:36;;;;;;;23.02;5.43;;;22.10;99.90;;;;;;7296511;32;20498;-58
2023/10/13 14:45:38;;;;;;;20.10;5.60;;;22.10;99.90;;;;;;7300343;32;20126;-59
2023/10/13 14:49:40;;;;;;;15.00;4.57;;;22.10;99.90;;;;;;7293922;32;20112;-58
2023/10/13 14:53:43;;;;;;;18.83;5.12;;;22.00;99.90;;;;;;7298461;32;20253;-60
2023/10/13 14:57:49;;;;;;;17.12;4.65;;;22.00;99.90;;;;;;7294822;32;20249;-58
2023/10/13 15:01:52;;;;;;;13.65;4.45;;;21.90;99.90;;;;;;7300776;32;20100;-58
2023/10/13 15:05:55;;;;;;;16.70;4.82;;;21.90;99.90;;;;;;7298508;32;20167;-58
2023/10/13 15:09:57;;;;;;;18.33;5.03;;;21.80;99.90;;;;;;7300422;32;20120;-58
2023/10/13 15:13:59;;;;;;;12.73;4.78;;;21.70;99.90;;;;;;7296120;32;20542;-59
2023/10/13 15:18:01;;;;;;;15.00;4.62;;;21.70;99.90;;;;;;7298304;32;20198;-58
2023/10/13 15:22:06;;;;;;;13.35;4.95;;;21.70;99.90;;;;;;7296362;32;20232;-59
2023/10/13 15:26:14;;;;;;;16.12;4.68;;;21.70;99.90;;;;;;7299494;32;20113;-59
2023/10/13 15:30:23;;;;;;;19.42;5.35;;;21.70;99.90;;;;;;7298011;32;20527;-58
2023/10/13 15:34:26;;;;;;;18.77;4.70;;;21.70;99.90;;;;;;7295899;32;20119;-58
2023/10/13 15:38:31;;;;;;;13.43;4.75;;;21.60;99.90;;;;;;7297384;32;20230;-58
2023/10/13 15:42:32;;;;;;;13.75;4.32;;;21.60;99.90;;;;;;7298639;32;20214;-59
2023/10/13 15:46:35;;;;;;;10.77;4.47;;;21.60;99.90;;;;;;7298203;32;20124;-57
2023/10/13 15:50:57;;;;;;;12.90;4.93;;;21.40;99.90;;;;;;7299148;32;20194;-58
2023/10/13 15:54:59;;;;;;;13.55;5.20;;;21.50;99.90;;;;;;7292829;32;20519;-58
2023/10/13 15:59:01;;;;;;;15.15;4.57;;;21.60;99.90;;;;;;7295165;32;20271;-59
2023/10/13 16:03:10;;;;;;;14.23;4.68;;;21.50;99.90;;;;;;7295479;32;20502;-58
2023/10/13 16:07:13;;;;;;;16.58;5.03;;;21.50;99.90;;;;;;7294891;32;20218;-59
2023/10/13 16:11:17;;;;;;;14.45;4.93;;;21.40;99.90;;;;;;7299094;32;20130;-59
2023/10/13 16:15:21;;;;;;;10.80;4.60;;;21.30;99.90;;;;;;7293898;32;20176;-57
2023/10/13 16:19:23;;;;;;;13.62;4.68;;;21.30;99.90;;;;;;7294875;32;20130;-58
2023/10/13 16:23:25;;;;;;;12.23;4.85;;;21.30;99.90;;;;;;7294796;32;22054;-59
2023/10/13 16:27:26;;;;;;;8.98;4.12;;;21.30;99.90;;;;;;7299000;32;20112;-58
2023/10/13 16:31:28;;;;;;;10.50;4.53;;;21.20;99.90;;;;;;7296315;32;20261;-58
2023/10/13 16:35:33;;;;;;;12.63;4.28;;;21.20;99.90;;;;;;7292863;32;20515;-57
2023/10/13 16:39:39;;;;;;;16.23;4.30;;;21.20;99.90;;;;;;7296832;32;20107;-57
2023/10/13 16:43:41;;;;;;;10.45;4.43;;;21.10;99.90;;;;;;7297761;32;20112;-58
2023/10/13 16:47:44;;;;;;;11.30;4.50;;;21.00;99.90;;;;;;7296479;32;20192;-58
2023/10/13 16:51:46;;;;;;;11.48;4.47;;;21.00;99.90;;;;;;7296459;32;20252;-57
2023/10/13 16:55:47;;;;;;;14.20;4.95;;;21.00;99.90;;;;;;7295862;32;20231;-56
2023/10/13 16:59:49;;;;;;;13.43;5.53;;;21.00;99.90;;;;;;7300580;32;20188;-56
2023/10/13 17:03:51;;;;;;;11.90;4.53;;;20.90;99.90;;;;;;7295483;32;20140;-56
2023/10/13 17:07:53;;;;;;;12.57;5.12;;;20.80;99.90;;;;;;7297165;32;20100;-57
2023/10/13 17:11:55;;;;;;;13.32;4.85;;;20.70;99.90;;;;;;7299774;32;20247;-56
2023/10/13 17:15:59;;;;;;;8.63;4.57;;;20.60;99.90;;;;;;7302918;32;20584;-56
2023/10/13 17:20:03;;;;;;;12.43;4.10;;;20.40;99.90;;;;;;7304101;32;20131;-56
2023/10/13 17:24:07;;;;;;;16.95;4.93;;;20.20;99.90;;;;;;7304723;32;20116;-56
2023/10/13 17:28:15;;;;;;;11.65;4.80;;;20.20;99.90;;;;;;7302975;32;20715;-56
2023/10/13 17:32:17;;;;;;;9.30;4.60;;;20.20;99.90;;;;;;7302933;32;20204;-56
2023/10/13 17:36:19;;;;;;;8.85;4.62;;;20.10;99.90;;;;;;7299403;32;20215;-56
2023/10/13 17:40:20;;;;;;;9.20;4.50;;;20.00;99.90;;;;;;7306190;32;20514;-56
2023/10/13 17:44:22;;;;;;;14.30;4.85;;;19.90;99.90;;;;;;7305804;32;20195;-57
2023/10/13 17:48:24;;;;;;;15.52;4.93;;;19.80;99.90;;;;;;7304925;32;20137;-56
2023/10/13 17:52:26;;;;;;;8.95;4.15;;;19.80;99.90;;;;;;7303895;32;20276;-55
2023/10/13 17:56:30;;;;;;;11.80;4.50;;;19.80;99.90;;;;;;7296593;32;20187;-56
2023/10/13 18:00:32;;;;;;;10.65;4.80;;;19.70;99.90;;;;;;7302043;32;20196;-56
2023/10/13 18:04:34;;;;;;;9.88;4.90;;;19.80;99.90;;;;;;7298062;32;20108;-56
2023/10/13 18:08:37;;;;;;;10.43;4.40;;;19.70;99.90;;;;;;7300012;32;20527;-56
2023/10/13 18:12:42;;;;;;;16.62;4.87;;;19.80;99.90;;;;;;7301192;32;20124;-56
2023/10/13 18:16:44;;;;;;;12.95;4.55;;;19.80;99.90;;;;;;7293605;32;20139;-56
2023/10/13 18:20:47;;;;;;;8.30;4.18;;;19.80;99.90;;;;;;7300374;32;20138;-55
2023/10/13 18:24:49;;;;;;;14.00;4.47;;;19.90;99.90;;;;;;7296901;32;20260;-56
2023/10/13 18:28:54;;;;;;;10.40;4.32;;;20.00;99.90;;;;;;7291723;32;20474;-56
2023/10/13 18:32:56;;;;;;;11.55;4.03;;;20.00;99.90;;;;;;7297362;32;20158;-56
2023/10/13 18:36:59;;;;;;;13.55;4.37;;;20.00;99.90;;;;;;7296099;32;20133;-55
2023/10/13 18:41:01;;;;;;;10.30;3.90;;;20.00;99.90;;;;;;7302758;32;20107;-56
2023/10/13 18:45:03;;;;;;;14.25;4.87;;;20.30;99.90;;;;;;7301033;32;20206;-57
2023/10/13 18:49:05;;;;;;;14.50;4.68;;;20.30;99.90;;;;;;7297398;32;20240;-62
2023/10/13 18:53:09;;;;;;;15.35;4.95;;;20.30;99.90;;;;;;7298689;32;20230;-56
2023/10/13 18:57:13;;;;;;;17.85;4.87;;;20.30;99.90;;;;;;7299820;32;20170;-55
2023/10/13 19:01:17;;;;;;;17.50;5.20;;;20.30;99.90;;;;;;7300680;32;20328;-55
2023/10/13 19:05:20;;;;;;;11.35;4.20;;;20.20;99.90;;;;;;7301201;32;20107;-55
2023/10/13 19:09:24;;;;;;;10.88;5.45;;;20.10;99.90;;;;;;7295054;32;20183;-55
2023/10/13 19:13:27;;;;;;;14.18;5.80;;;19.90;99.90;;;;;;7298273;32;20126;-55
2023/10/13 19:17:28;;;;;;;14.52;6.10;;;19.80;99.90;;;;;;7296073;32;20153;-55
2023/10/13 19:21:36;;;;;;;13.90;5.97;;;19.60;99.90;;;;;;7300075;32;20234;-55
2023/10/13 19:25:38;;;;;;;9.45;5.15;;;19.60;99.90;;;;;;7300749;32;20214;-55
2023/10/13 19:29:39;;;;;;;10.88;5.32;;;19.50;99.90;;;;;;7298774;32;20167;-56
2023/10/13 19:33:43;;;;;;;16.87;4.90;;;19.50;99.90;;;;;;7296716;32;20243;-56
2023/10/13 19:37:45;;;;;;;12.65;5.22;;;19.60;99.90;;;;;;7297506;32;20130;-56
2023/10/13 19:41:47;;;;;;;13.73;5.10;;;19.70;99.90;;;;;;7298858;32;20123;-56
2023/10/13 19:45:48;;;;;;;16.10;5.10;;;19.70;99.90;;;;;;7297990;32;20258;-56
2023/10/13 19:49:50;;;;;;;18.20;5.53;;;19.80;99.90;;;;;;7296308;32;20179;-55
2023/10/13 19:53:53;;;;;;;13.30;5.78;;;19.90;99.90;;;;;;7301804;32;20115;-57
2023/10/13 19:57:56;;;;;;;20.23;5.95;;;19.40;99.90;;;;;;7296708;32;20131;-56
2023/10/13 20:01:58;;;;;;;19.73;6.68;;;18.80;99.90;;;;;;7298593;32;20120;-55
2023/10/13 20:05:59;;;;;;;14.43;6.22;;;18.40;99.90;;;;;;7299688;32;20230;-56
2023/10/13 20:10:02;;;;;;;15.57;6.50;;;18.00;99.90;;;;;;7298290;32;20204;-56
2023/10/13 20:14:04;;;;;;;15.07;7.37;;;17.90;99.90;;;;;;7299941;32;20328;-56
2023/10/13 20:18:09;;;;;;;15.10;6.47;;;17.70;99.90;;;;;;7295587;32;20210;-55
2023/10/13 20:22:10;;;;;;;15.55;7.07;;;17.60;99.90;;;;;;7293244;32;20134;-56
2023/10/13 20:26:15;;;;;;;16.35;7.07;;;17.40;99.90;;;;;;7298092;32;20627;-56
2023/10/13 20:30:21;;;;;;;18.85;7.68;;;17.30;99.90;;;;;;7291094;32;20143;-55
2023/10/13 20:34:23;;;;;;;17.13;7.70;;;17.40;99.90;;;;;;7294380;32;20246;-57
2023/10/13 20:43:29;;;;;;;13.95;6.68;;;17.30;99.90;;;;;;7292020;32;20500;-55
2023/10/13 20:47:32;;;;;;;15.95;6.82;;;17.50;99.90;;;;;;7292943;32;20252;-55
2023/10/13 20:51:34;;;;;;;14.80;6.35;;;17.60;99.90;;;;;;7298383;32;20143;-56
2023/10/13 20:55:37;;;;;;;22.50;7.10;;;17.70;99.90;;;;;;7303166;32;20603;-56
2023/10/13 20:59:39;;;;;;;19.20;7.00;;;17.70;99.90;;;;;;7302952;32;20181;-56
2023/10/13 21:03:41;;;;;;;12.95;6.28;;;17.80;99.90;;;;;;7303072;32;20144;-56
2023/10/13 21:07:43;;;;;;;15.38;6.07;;;18.10;99.90;;;;;;7298222;32;20545;-56
2023/10/13 21:11:47;;;;;;;15.32;6.22;;;18.20;99.90;;;;;;7303077;32;20168;-56
2023/10/13 21:15:49;;;;;;;16.27;6.72;;;18.40;99.90;;;;;;7304337;32;20233;-56
2023/10/13 21:19:50;;;;;;;17.92;6.57;;;18.30;99.90;;;;;;7296485;32;20116;-56
2023/10/13 21:23:53;;;;;;;16.40;6.90;;;18.40;99.90;;;;;;7308654;32;20112;-56
2023/10/13 21:28:03;;;;;;;14.57;5.95;;;18.40;99.90;;;;;;7299139;32;20210;-56
2023/10/13 21:32:05;;;;;;;19.95;6.57;;;18.50;99.90;;;;;;7299784;32;20164;-56
2023/10/13 21:36:13;;;;;;;13.77;6.28;;;18.50;99.90;;;;;;7301356;32;20111;-56
2023/10/13 21:40:18;;;;;;;14.30;6.20;;;18.60;99.90;;;;;;7302595;32;20107;-57
2023/10/13 21:44:20;;;;;;;19.58;6.78;;;18.80;99.90;;;;;;7301363;32;20107;-56
2023/10/13 21:48:23;;;;;;;15.18;5.75;;;18.80;99.90;;;;;;7303933;32;20326;-55
2023/10/13 21:52:25;;;;;;;18.85;6.82;;;18.90;99.90;;;;;;7302361;32;20198;-57
2023/10/13 21:56:28;;;;;;;14.15;6.05;;;19.00;99.90;;;;;;7298386;32;20132;-57
2023/10/13 22:00:53;;;;;;;19.62;7.28;;;19.00;99.90;;;;;;7301628;32;20484;-55
2023/10/13 22:04:52;;;;;;;12.98;5.97;;;19.10;99.90;;;;;;7302027;32;20131;-56
2023/10/13 22:08:54;;;;;;;15.70;6.45;;;19.20;99.90;;;;;;7303026;32;20175;-56
2023/10/13 22:12:56;;;;;;;14.55;6.90;;;19.30;99.90;;;;;;7293171;32;20143;-56
2023/10/13 22:16:59;;;;;;;20.12;6.80;;;19.40;99.90;;;;;;7303378;32;20144;-57
2023/10/13 22:21:02;;;;;;;17.23;6.65;;;19.40;99.90;;;;;;7304686;32;20108;-57
2023/10/13 22:25:11;;;;;;;19.95;6.78;;;19.40;99.90;;;;;;7294480;32;20288;-56
2023/10/13 22:29:13;;;;;;;16.27;6.90;;;19.50;99.90;;;;;;7304088;32;20278;-57
2023/10/13 22:33:15;;;;;;;16.42;6.72;;;19.60;99.90;;;;;;7303863;32;20477;-55
2023/10/13 22:37:17;;;;;;;12.05;7.22;;;19.50;99.90;;;;;;7299975;32;20199;-56
2023/10/13 22:41:19;;;;;;;16.83;6.97;;;19.50;99.90;;;;;;7292353;32;20227;-58
2023/10/13 22:45:23;;;;;;;16.12;6.65;;;19.40;99.90;;;;;;7296311;32;20151;-56
2023/10/13 22:49:25;;;;;;;17.87;7.15;;;19.40;99.90;;;;;;7301391;32;20213;-56
2023/10/13 22:53:27;;;;;;;19.08;6.95;;;19.40;99.90;;;;;;7297066;32;20195;-56
2023/10/13 22:57:31;;;;;;;13.38;6.47;;;19.40;99.90;;;;;;7300000;32;20526;-56
2023/10/13 23:01:42;;;;;;;18.12;7.05;;;19.40;99.90;;;;;;7297749;32;20171;-57
2023/10/13 23:06:03;;;;;;;15.43;7.40;;;19.30;99.90;;;;;;7295967;32;20213;-56
2023/10/13 23:10:19;;;;;;;15.20;6.75;;;19.20;99.90;;;;;;7301698;32;20358;-57
2023/10/13 23:14:28;;;;;;;13.88;7.37;;;19.20;99.90;;;;;;7297308;32;20180;-57
2023/10/13 23:18:29;;;;;;;15.73;7.62;;;19.20;99.90;;;;;;7298100;32;20560;-56
2023/10/13 23:22:31;;;;;;;16.50;7.35;;;19.10;99.90;;;;;;7297960;32;20104;-57
2023/10/13 23:26:33;;;;;;;18.98;8.45;;;19.20;99.90;;;;;;7300564;32;20430;-57
2023/10/13 23:30:36;;;;;;;22.10;8.43;;;19.10;99.90;;;;;;7301105;32;20206;-57
2023/10/13 23:34:40;;;;;;;12.35;8.00;;;19.10;99.90;;;;;;7299783;32;20167;-58
2023/10/13 23:38:54;;;;;;;18.33;8.38;;;19.10;99.90;;;;;;7295098;32;20501;-57
2023/10/13 23:42:56;;;;;;;15.40;8.70;;;19.20;99.90;;;;;;7295543;32;20135;-56
2023/10/13 23:46:58;;;;;;;15.23;7.93;;;19.20;99.90;;;;;;7300933;32;20435;-56
2023/10/13 23:51:01;;;;;;;20.02;9.13;;;19.20;99.90;;;;;;7295557;32;20119;-56